createdAt,value
2018-08-20T00:00:21.251Z,1011.59
2018-08-20T00:01:21.250Z,1011.58
2018-08-20T00:02:21.230Z,1011.60
2018-08-20T00:03:21.221Z,1011.59
2018-08-20T00:04:21.215Z,1011.57
2018-08-20T00:05:21.199Z,1011.61
2018-08-20T00:06:21.189Z,1011.57
2018-08-20T00:07:21.178Z,1011.58
2018-08-20T00:08:21.168Z,1011.54
2018-08-20T00:09:21.157Z,1011.55
2018-08-20T00:10:21.148Z,1011.52
2018-08-20T00:11:21.137Z,1011.48
2018-08-20T00:12:21.131Z,1011.54
2018-08-20T00:13:21.118Z,1011.55
2018-08-20T00:14:21.110Z,1011.54
2018-08-20T00:15:21.094Z,1011.56
2018-08-20T00:16:21.086Z,1011.55
2018-08-20T00:17:21.074Z,1011.52
2018-08-20T00:18:21.062Z,1011.56
2018-08-20T00:19:21.053Z,1011.58
2018-08-20T00:20:21.046Z,1011.59
2018-08-20T00:21:21.031Z,1011.54
2018-08-20T00:22:21.023Z,1011.53
2018-08-20T00:23:21.010Z,1011.54
2018-08-20T00:24:21.000Z,1011.56
2018-08-20T00:25:20.987Z,1011.54
2018-08-20T00:26:20.979Z,1011.55
2018-08-20T00:27:20.967Z,1011.60
2018-08-20T00:28:20.962Z,1011.59
2018-08-20T00:29:20.945Z,1011.58
2018-08-20T00:30:20.937Z,1011.54
2018-08-20T00:31:20.929Z,1011.52
2018-08-20T00:32:20.915Z,1011.52
2018-08-20T00:33:20.906Z,1011.49
2018-08-20T00:34:20.893Z,1011.52
2018-08-20T00:35:20.886Z,1011.53
2018-08-20T00:36:20.880Z,1011.53
2018-08-20T00:37:20.861Z,1011.50
2018-08-20T00:38:20.854Z,1011.57
2018-08-20T00:39:20.841Z,1011.49
2018-08-20T00:40:20.831Z,1011.53
2018-08-20T00:41:20.820Z,1011.48
2018-08-20T00:42:20.807Z,1011.51
2018-08-20T00:43:20.802Z,1011.48
2018-08-20T00:44:20.789Z,1011.50
2018-08-20T00:45:20.777Z,1011.56
2018-08-20T00:46:20.766Z,1011.53
2018-08-20T00:47:20.758Z,1011.57
2018-08-20T00:48:20.745Z,1011.54
2018-08-20T00:49:20.736Z,1011.59
2018-08-20T00:50:20.723Z,1011.52
2018-08-20T00:51:20.713Z,1011.48
2018-08-20T00:52:20.702Z,1011.45
2018-08-20T00:53:20.691Z,1011.53
2018-08-20T00:54:20.679Z,1011.45
2018-08-20T00:55:20.670Z,1011.49
2018-08-20T00:56:20.665Z,1011.51
2018-08-20T00:57:20.649Z,1011.49
2018-08-20T00:58:20.636Z,1011.47
2018-08-20T00:59:20.630Z,1011.47
2018-08-20T01:00:20.618Z,1011.54
2018-08-20T01:01:20.604Z,1011.48
2018-08-20T01:02:20.597Z,1011.53
2018-08-20T01:03:20.588Z,1011.53
2018-08-20T01:04:20.579Z,1011.53
2018-08-20T01:05:20.564Z,1011.58
2018-08-20T01:06:20.561Z,1011.53
2018-08-20T01:07:20.543Z,1011.54
2018-08-20T01:08:20.536Z,1011.54
2018-08-20T01:09:20.526Z,1011.54
2018-08-20T01:10:20.511Z,1011.54
2018-08-20T01:11:20.507Z,1011.57
2018-08-20T01:12:20.492Z,1011.55
2018-08-20T01:13:20.479Z,1011.55
2018-08-20T01:14:20.473Z,1011.56
2018-08-20T01:15:20.465Z,1011.53
2018-08-20T01:16:20.447Z,1011.56
2018-08-20T01:17:20.437Z,1011.59
2018-08-20T01:18:20.425Z,1011.54
2018-08-20T01:19:20.413Z,1011.53
2018-08-20T01:20:20.451Z,1011.51
2018-08-20T01:21:20.395Z,1011.52
2018-08-20T01:22:20.383Z,1011.51
2018-08-20T01:23:20.374Z,1011.53
2018-08-20T01:24:20.361Z,1011.54
2018-08-20T01:25:20.353Z,1011.50
2018-08-20T01:26:20.338Z,1011.51
2018-08-20T01:27:20.340Z,1011.54
2018-08-20T01:28:20.329Z,1011.59
2018-08-20T01:29:20.307Z,1011.57
2018-08-20T01:30:20.301Z,1011.53
2018-08-20T01:31:20.284Z,1011.54
2018-08-20T01:32:20.275Z,1011.52
2018-08-20T01:33:20.272Z,1011.54
2018-08-20T01:34:20.252Z,1011.52
2018-08-20T01:35:20.242Z,1011.54
2018-08-20T01:36:20.239Z,1011.49
2018-08-20T01:37:20.222Z,1011.52
2018-08-20T01:38:20.204Z,1011.48
2018-08-20T01:39:20.204Z,1011.49
2018-08-20T01:40:20.184Z,1011.51
2018-08-20T01:41:20.173Z,1011.47
2018-08-20T01:42:20.164Z,1011.45
2018-08-20T01:43:20.153Z,1011.46
2018-08-20T01:44:20.145Z,1011.46
2018-08-20T01:45:20.133Z,1011.48
2018-08-20T01:46:20.123Z,1011.46
2018-08-20T01:47:20.108Z,1011.47
2018-08-20T01:48:20.098Z,1011.42
2018-08-20T01:49:20.085Z,1011.46
2018-08-20T01:50:20.075Z,1011.52
2018-08-20T01:51:20.109Z,1011.49
2018-08-20T01:52:20.054Z,1011.47
2018-08-20T01:53:20.048Z,1011.46
2018-08-20T01:54:20.033Z,1011.46
2018-08-20T01:55:20.024Z,1011.44
2018-08-20T01:56:20.011Z,1011.46
2018-08-20T01:57:20.003Z,1011.43
2018-08-20T01:58:19.990Z,1011.44
2018-08-20T01:59:19.981Z,1011.44
2018-08-20T02:00:19.973Z,1011.39
2018-08-20T02:01:19.959Z,1011.39
2018-08-20T02:02:19.946Z,1011.37
2018-08-20T02:03:19.934Z,1011.41
2018-08-20T02:04:19.924Z,1011.37
2018-08-20T02:05:19.913Z,1011.37
2018-08-20T02:06:19.902Z,1011.38
2018-08-20T02:07:19.892Z,1011.40
2018-08-20T02:08:19.881Z,1011.38
2018-08-20T02:09:19.869Z,1011.41
2018-08-20T02:10:19.859Z,1011.39
2018-08-20T02:11:19.850Z,1011.37
2018-08-20T02:12:19.840Z,1011.34
2018-08-20T02:13:19.831Z,1011.37
2018-08-20T02:14:19.815Z,1011.33
2018-08-20T02:15:19.804Z,1011.35
2018-08-20T02:16:19.793Z,1011.36
2018-08-20T02:17:19.787Z,1011.34
2018-08-20T02:18:19.772Z,1011.34
2018-08-20T02:19:19.761Z,1011.34
2018-08-20T02:20:19.749Z,1011.37
2018-08-20T02:21:19.740Z,1011.35
2018-08-20T02:22:19.732Z,1011.33
2018-08-20T02:23:19.722Z,1011.27
2018-08-20T02:24:19.708Z,1011.25
2018-08-20T02:25:19.703Z,1011.23
2018-08-20T02:26:19.684Z,1011.18
2018-08-20T02:27:19.674Z,1011.24
2018-08-20T02:28:19.661Z,1011.19
2018-08-20T02:29:19.652Z,1011.21
2018-08-20T02:30:19.641Z,1011.22
2018-08-20T02:31:19.632Z,1011.21
2018-08-20T02:32:19.622Z,1011.26
2018-08-20T02:33:19.645Z,1011.26
2018-08-20T02:34:19.597Z,1011.27
2018-08-20T02:35:19.593Z,1011.25
2018-08-20T02:36:19.580Z,1011.26
2018-08-20T02:37:19.565Z,1011.27
2018-08-20T02:38:19.554Z,1011.29
2018-08-20T02:39:19.548Z,1011.31
2018-08-20T02:40:19.535Z,1011.27
2018-08-20T02:41:19.522Z,1011.26
2018-08-20T02:42:19.517Z,1011.23
2018-08-20T02:43:19.499Z,1011.22
2018-08-20T02:44:19.494Z,1011.26
2018-08-20T02:45:19.478Z,1011.27
2018-08-20T02:46:19.467Z,1011.25
2018-08-20T02:47:19.455Z,1011.26
2018-08-20T02:48:19.445Z,1011.24
2018-08-20T02:49:19.437Z,1011.23
2018-08-20T02:50:19.424Z,1011.24
2018-08-20T02:51:19.415Z,1011.24
2018-08-20T02:52:19.402Z,1011.23
2018-08-20T02:53:19.393Z,1011.22
2018-08-20T02:54:19.384Z,1011.25
2018-08-20T02:55:19.367Z,1011.26
2018-08-20T02:56:19.356Z,1011.26
2018-08-20T02:57:19.346Z,1011.22
2018-08-20T02:58:19.337Z,1011.22
2018-08-20T02:59:19.329Z,1011.18
2018-08-20T03:00:19.315Z,1011.18
2018-08-20T03:01:19.306Z,1011.20
2018-08-20T03:02:19.292Z,1011.16
2018-08-20T03:03:19.282Z,1011.18
2018-08-20T03:04:19.271Z,1011.13
2018-08-20T03:05:19.258Z,1011.17
2018-08-20T03:06:19.247Z,1011.13
2018-08-20T03:07:19.236Z,1011.13
2018-08-20T03:08:19.222Z,1011.13
2018-08-20T03:09:19.214Z,1011.16
2018-08-20T03:10:19.207Z,1011.08
2018-08-20T03:11:19.193Z,1011.16
2018-08-20T03:12:19.181Z,1011.14
2018-08-20T03:13:19.170Z,1011.15
2018-08-20T03:14:19.159Z,1011.15
2018-08-20T03:15:19.148Z,1011.17
2018-08-20T03:16:19.161Z,1011.16
2018-08-20T03:17:19.150Z,1011.15
2018-08-20T03:18:19.115Z,1011.16
2018-08-20T03:19:19.104Z,1011.15
2018-08-20T03:20:19.101Z,1011.21
2018-08-20T03:21:19.080Z,1011.16
2018-08-20T03:22:19.073Z,1011.19
2018-08-20T03:23:19.064Z,1011.13
2018-08-20T03:24:19.049Z,1011.16
2018-08-20T03:25:19.037Z,1011.17
2018-08-20T03:26:19.024Z,1011.17
2018-08-20T03:27:19.015Z,1011.17
2018-08-20T03:28:19.009Z,1011.18
2018-08-20T03:29:18.997Z,1011.16
2018-08-20T03:30:18.983Z,1011.17
2018-08-20T03:31:18.977Z,1011.13
2018-08-20T03:32:18.960Z,1011.13
2018-08-20T03:33:18.952Z,1011.15
2018-08-20T03:34:18.940Z,1011.14
2018-08-20T03:35:18.928Z,1011.18
2018-08-20T03:36:18.920Z,1011.18
2018-08-20T03:37:18.903Z,1011.19
2018-08-20T03:38:18.893Z,1011.20
2018-08-20T03:39:18.884Z,1011.20
2018-08-20T03:40:18.881Z,1011.18
2018-08-20T03:41:18.863Z,1011.21
2018-08-20T03:42:18.848Z,1011.20
2018-08-20T03:43:18.841Z,1011.22
2018-08-20T03:44:18.827Z,1011.22
2018-08-20T03:45:18.815Z,1011.23
2018-08-20T03:46:18.808Z,1011.24
2018-08-20T03:47:18.797Z,1011.22
2018-08-20T03:48:18.781Z,1011.24
2018-08-20T03:49:18.776Z,1011.25
2018-08-20T03:50:18.763Z,1011.25
2018-08-20T03:51:18.747Z,1011.25
2018-08-20T03:52:18.741Z,1011.22
2018-08-20T03:53:18.732Z,1011.28
2018-08-20T03:54:18.717Z,1011.23
2018-08-20T03:55:18.709Z,1011.28
2018-08-20T03:56:18.692Z,1011.28
2018-08-20T03:57:18.680Z,1011.27
2018-08-20T03:58:18.672Z,1011.26
2018-08-20T03:59:18.659Z,1011.24
2018-08-20T04:00:18.650Z,1011.27
2018-08-20T04:01:18.635Z,1011.28
2018-08-20T04:02:18.623Z,1011.28
2018-08-20T04:03:18.614Z,1011.27
2018-08-20T04:04:18.604Z,1011.27
2018-08-20T04:05:18.592Z,1011.30
2018-08-20T04:06:18.582Z,1011.31
2018-08-20T04:07:18.569Z,1011.33
2018-08-20T04:08:18.562Z,1011.31
2018-08-20T04:09:18.550Z,1011.30
2018-08-20T04:10:18.537Z,1011.32
2018-08-20T04:11:18.524Z,1011.30
2018-08-20T04:12:18.518Z,1011.26
2018-08-20T04:13:18.500Z,1011.28
2018-08-20T04:14:18.491Z,1011.22
2018-08-20T04:15:18.486Z,1011.25
2018-08-20T04:16:18.469Z,1011.26
2018-08-20T04:17:18.461Z,1011.27
2018-08-20T04:18:18.444Z,1011.30
2018-08-20T04:19:18.435Z,1011.25
2018-08-20T04:20:18.422Z,1011.25
2018-08-20T04:21:18.412Z,1011.24
2018-08-20T04:22:18.406Z,1011.25
2018-08-20T04:23:18.389Z,1011.22
2018-08-20T04:24:18.380Z,1011.22
2018-08-20T04:25:18.373Z,1011.21
2018-08-20T04:26:18.360Z,1011.19
2018-08-20T04:27:18.345Z,1011.15
2018-08-20T04:28:18.335Z,1011.14
2018-08-20T04:29:18.325Z,1011.12
2018-08-20T04:30:18.318Z,1011.12
2018-08-20T04:31:18.299Z,1011.17
2018-08-20T04:32:18.293Z,1011.10
2018-08-20T04:33:18.278Z,1011.13
2018-08-20T04:34:18.273Z,1011.13
2018-08-20T04:35:18.255Z,1011.06
2018-08-20T04:36:18.257Z,1011.06
2018-08-20T04:37:18.236Z,1011.07
2018-08-20T04:38:18.233Z,1011.02
2018-08-20T04:39:18.216Z,1011.08
2018-08-20T04:40:18.203Z,1011.18
2018-08-20T04:41:18.190Z,1011.19
2018-08-20T04:42:18.251Z,1011.21
2018-08-20T04:43:18.167Z,1011.23
2018-08-20T04:44:18.158Z,1011.20
2018-08-20T04:45:18.142Z,1011.20
2018-08-20T04:46:18.132Z,1011.19
2018-08-20T04:47:18.125Z,1011.20
2018-08-20T04:48:18.114Z,1011.18
2018-08-20T04:49:18.097Z,1011.17
2018-08-20T04:50:18.472Z,1011.17
2018-08-20T04:51:18.293Z,1011.18
2018-08-20T04:52:18.068Z,1011.18
2018-08-20T04:53:18.054Z,1011.19
2018-08-20T04:54:18.042Z,1011.20
2018-08-20T04:55:18.031Z,1011.18
2018-08-20T04:56:18.023Z,1011.17
2018-08-20T04:57:18.010Z,1011.12
2018-08-20T04:58:18.000Z,1011.17
2018-08-20T04:59:17.988Z,1011.13
2018-08-20T05:00:17.978Z,1011.14
2018-08-20T05:01:17.965Z,1011.12
2018-08-20T05:02:17.950Z,1011.15
2018-08-20T05:03:17.944Z,1011.16
2018-08-20T05:04:17.933Z,1011.17
2018-08-20T05:05:17.917Z,1011.17
2018-08-20T05:06:17.907Z,1011.18
2018-08-20T05:07:17.914Z,1011.22
2018-08-20T05:08:17.886Z,1011.21
2018-08-20T05:09:17.882Z,1011.24
2018-08-20T05:10:17.864Z,1011.26
2018-08-20T05:11:17.850Z,1011.26
2018-08-20T05:12:17.841Z,1011.30
2018-08-20T05:13:17.828Z,1011.31
2018-08-20T05:14:17.813Z,1011.31
2018-08-20T05:15:17.802Z,1011.31
2018-08-20T05:16:17.795Z,1011.31
2018-08-20T05:17:17.781Z,1011.33
2018-08-20T05:18:17.768Z,1011.37
2018-08-20T05:19:17.757Z,1011.35
2018-08-20T05:20:17.745Z,1011.41
2018-08-20T05:21:17.735Z,1011.42
2018-08-20T05:22:17.727Z,1011.39
2018-08-20T05:23:17.719Z,1011.42
2018-08-20T05:24:17.705Z,1011.39
2018-08-20T05:25:17.690Z,1011.40
2018-08-20T05:26:17.681Z,1011.39
2018-08-20T05:27:17.678Z,1011.41
2018-08-20T05:28:17.659Z,1011.38
2018-08-20T05:29:17.700Z,1011.41
2018-08-20T05:30:17.632Z,1011.46
2018-08-20T05:31:17.624Z,1011.47
2018-08-20T05:32:17.611Z,1011.49
2018-08-20T05:33:17.600Z,1011.47
2018-08-20T05:34:17.588Z,1011.54
2018-08-20T05:35:17.576Z,1011.53
2018-08-20T05:36:17.571Z,1011.55
2018-08-20T05:37:17.554Z,1011.54
2018-08-20T05:38:17.545Z,1011.56
2018-08-20T05:39:17.530Z,1011.58
2018-08-20T05:40:17.525Z,1011.56
2018-08-20T05:41:17.508Z,1011.56
2018-08-20T05:42:17.496Z,1011.57
2018-08-20T05:43:17.485Z,1011.58
2018-08-20T05:44:17.478Z,1011.62
2018-08-20T05:45:17.464Z,1011.61
2018-08-20T05:46:17.455Z,1011.60
2018-08-20T05:47:17.444Z,1011.60
2018-08-20T05:48:17.429Z,1011.57
2018-08-20T05:49:17.424Z,1011.60
2018-08-20T05:50:17.403Z,1011.62
2018-08-20T05:51:17.395Z,1011.62
2018-08-20T05:52:17.393Z,1011.65
2018-08-20T05:53:17.372Z,1011.65
2018-08-20T05:54:17.360Z,1011.65
2018-08-20T05:55:17.350Z,1011.64
2018-08-20T05:56:17.336Z,1011.63
2018-08-20T05:57:17.331Z,1011.64
2018-08-20T05:58:17.317Z,1011.70
2018-08-20T05:59:17.393Z,1011.66
2018-08-20T06:00:17.295Z,1011.65
2018-08-20T06:01:17.279Z,1011.69
2018-08-20T06:02:17.266Z,1011.66
2018-08-20T06:03:17.261Z,1011.72
2018-08-20T06:04:17.245Z,1011.70
2018-08-20T06:05:17.240Z,1011.73
2018-08-20T06:06:17.228Z,1011.74
2018-08-20T06:07:17.213Z,1011.77
2018-08-20T06:08:17.201Z,1011.79
2018-08-20T06:09:17.194Z,1011.77
2018-08-20T06:10:17.180Z,1011.79
2018-08-20T06:11:17.170Z,1011.81
2018-08-20T06:12:17.159Z,1011.85
2018-08-20T06:13:17.146Z,1011.85
2018-08-20T06:14:17.132Z,1011.84
2018-08-20T06:15:17.154Z,1011.91
2018-08-20T06:16:17.111Z,1011.87
2018-08-20T06:17:17.097Z,1011.88
2018-08-20T06:18:17.088Z,1011.89
2018-08-20T06:19:17.075Z,1011.93
2018-08-20T06:20:17.066Z,1011.91
2018-08-20T06:21:17.057Z,1011.96
2018-08-20T06:22:17.041Z,1011.94
2018-08-20T06:23:17.030Z,1011.97
2018-08-20T06:24:17.021Z,1011.98
2018-08-20T06:25:17.008Z,1012.01
2018-08-20T06:26:17.003Z,1012.01
2018-08-20T06:27:16.990Z,1012.02
2018-08-20T06:28:16.979Z,1012.04
2018-08-20T06:29:16.982Z,1012.07
2018-08-20T06:30:16.952Z,1012.08
2018-08-20T06:31:16.945Z,1012.10
2018-08-20T06:32:16.931Z,1012.11
2018-08-20T06:33:16.933Z,1012.14
2018-08-20T06:34:16.909Z,1012.11
2018-08-20T06:35:16.896Z,1012.05
2018-08-20T06:36:16.890Z,1012.07
2018-08-20T06:37:16.872Z,1012.10
2018-08-20T06:38:16.917Z,1012.10
2018-08-20T06:39:16.858Z,1012.11
2018-08-20T06:40:16.858Z,1012.09
2018-08-20T06:41:16.829Z,1012.09
2018-08-20T06:42:16.819Z,1012.09
2018-08-20T06:43:16.807Z,1012.10
2018-08-20T06:44:16.796Z,1012.09
2018-08-20T06:45:16.789Z,1012.10
2018-08-20T06:46:16.775Z,1012.04
2018-08-20T06:47:16.764Z,1012.05
2018-08-20T06:48:16.799Z,1012.00
2018-08-20T06:49:16.746Z,1012.05
2018-08-20T06:50:16.730Z,1012.01
2018-08-20T06:51:16.725Z,1012.06
2018-08-20T06:52:16.719Z,1012.07
2018-08-20T06:53:16.698Z,1012.07
2018-08-20T06:54:16.693Z,1012.09
2018-08-20T06:55:16.678Z,1012.04
2018-08-20T06:56:16.663Z,1012.06
2018-08-20T06:57:16.653Z,1012.06
2018-08-20T06:58:16.641Z,1012.06
2018-08-20T06:59:16.629Z,1012.09
2018-08-20T07:00:16.618Z,1012.12
2018-08-20T07:01:16.615Z,1012.11
2018-08-20T07:02:16.596Z,1012.12
2018-08-20T07:03:16.586Z,1012.08
2018-08-20T07:04:16.576Z,1012.14
2018-08-20T07:05:16.564Z,1012.14
2018-08-20T07:06:16.564Z,1012.13
2018-08-20T07:07:16.544Z,1012.17
2018-08-20T07:08:16.533Z,1012.19
2018-08-20T07:09:16.526Z,1012.17
2018-08-20T07:10:16.509Z,1012.15
2018-08-20T07:11:16.505Z,1012.16
2018-08-20T07:12:16.488Z,1012.17
2018-08-20T07:13:16.477Z,1012.14
2018-08-20T07:14:16.472Z,1012.19
2018-08-20T07:15:16.455Z,1012.21
2018-08-20T07:16:16.443Z,1012.19
2018-08-20T07:17:16.432Z,1012.18
2018-08-20T07:18:16.422Z,1012.17
2018-08-20T07:19:16.413Z,1012.20
2018-08-20T07:20:16.401Z,1012.24
2018-08-20T07:21:16.392Z,1012.27
2018-08-20T07:22:16.376Z,1012.28
2018-08-20T07:23:16.369Z,1012.26
2018-08-20T07:24:16.357Z,1012.27
2018-08-20T07:25:16.344Z,1012.27
2018-08-20T07:26:16.334Z,1012.30
2018-08-20T07:27:16.324Z,1012.27
2018-08-20T07:28:16.319Z,1012.32
2018-08-20T07:29:16.300Z,1012.33
2018-08-20T07:30:16.290Z,1012.32
2018-08-20T07:31:16.277Z,1012.31
2018-08-20T07:32:16.267Z,1012.29
2018-08-20T07:33:16.261Z,1012.32
2018-08-20T07:34:16.245Z,1012.32
2018-08-20T07:35:16.243Z,1012.35
2018-08-20T07:36:16.233Z,1012.32
2018-08-20T07:37:16.213Z,1012.31
2018-08-20T07:38:16.203Z,1012.32
2018-08-20T07:39:16.192Z,1012.35
2018-08-20T07:40:16.182Z,1012.35
2018-08-20T07:41:16.169Z,1012.36
2018-08-20T07:42:16.197Z,1012.37
2018-08-20T07:43:16.153Z,1012.31
2018-08-20T07:44:16.139Z,1012.35
2018-08-20T07:45:16.127Z,1012.38
2018-08-20T07:46:16.115Z,1012.37
2018-08-20T07:47:16.105Z,1012.36
2018-08-20T07:48:16.096Z,1012.37
2018-08-20T07:49:16.082Z,1012.40
2018-08-20T07:50:16.071Z,1012.43
2018-08-20T07:51:16.063Z,1012.45
2018-08-20T07:52:16.061Z,1012.46
2018-08-20T07:53:16.048Z,1012.45
2018-08-20T07:54:16.032Z,1012.47
2018-08-20T07:55:16.025Z,1012.46
2018-08-20T07:56:16.009Z,1012.48
2018-08-20T07:57:16.005Z,1012.44
2018-08-20T07:58:15.993Z,1012.46
2018-08-20T07:59:15.981Z,1012.50
2018-08-20T08:00:15.970Z,1012.51
2018-08-20T08:01:15.958Z,1012.55
2018-08-20T08:02:15.948Z,1012.55
2018-08-20T08:03:15.937Z,1012.54
2018-08-20T08:04:15.930Z,1012.53
2018-08-20T08:05:15.916Z,1012.57
2018-08-20T08:06:15.907Z,1012.54
2018-08-20T08:07:15.907Z,1012.60
2018-08-20T08:08:15.889Z,1012.57
2018-08-20T08:09:15.875Z,1012.60
2018-08-20T08:10:15.863Z,1012.58
2018-08-20T08:11:15.858Z,1012.60
2018-08-20T08:12:15.842Z,1012.65
2018-08-20T08:13:15.836Z,1012.64
2018-08-20T08:14:15.895Z,1012.68
2018-08-20T08:15:15.821Z,1012.69
2018-08-20T08:16:15.809Z,1012.70
2018-08-20T08:17:15.793Z,1012.69
2018-08-20T08:18:15.783Z,1012.70
2018-08-20T08:19:15.779Z,1012.76
2018-08-20T08:20:15.765Z,1012.78
2018-08-20T08:21:15.750Z,1012.71
2018-08-20T08:22:15.756Z,1012.79
2018-08-20T08:23:15.735Z,1012.78
2018-08-20T08:24:15.723Z,1012.79
2018-08-20T08:25:15.713Z,1012.78
2018-08-20T08:26:15.702Z,1012.82
2018-08-20T08:27:15.701Z,1012.84
2018-08-20T08:28:15.680Z,1012.85
2018-08-20T08:29:15.669Z,1012.85
2018-08-20T08:30:15.660Z,1012.81
2018-08-20T08:31:15.650Z,1012.80
2018-08-20T08:32:15.640Z,1012.88
2018-08-20T08:33:15.637Z,1012.84
2018-08-20T08:34:15.618Z,1012.81
2018-08-20T08:35:15.611Z,1012.84
2018-08-20T08:36:15.594Z,1012.86
2018-08-20T08:37:15.586Z,1012.85
2018-08-20T08:38:15.579Z,1012.85
2018-08-20T08:39:15.571Z,1012.85
2018-08-20T08:40:15.554Z,1012.81
2018-08-20T08:41:15.542Z,1012.85
2018-08-20T08:42:15.541Z,1012.81
2018-08-20T08:43:15.525Z,1012.79
2018-08-20T08:44:15.512Z,1012.78
2018-08-20T08:45:15.509Z,1012.83
2018-08-20T08:46:15.500Z,1012.81
2018-08-20T08:47:15.483Z,1012.81
2018-08-20T08:48:15.481Z,1012.82
2018-08-20T08:49:15.461Z,1012.84
2018-08-20T08:50:15.452Z,1012.86
2018-08-20T08:51:15.441Z,1012.88
2018-08-20T08:52:15.431Z,1012.85
2018-08-20T08:53:15.416Z,1012.83
2018-08-20T08:54:15.409Z,1012.82
2018-08-20T08:55:15.398Z,1012.80
2018-08-20T08:56:15.393Z,1012.84
2018-08-20T08:57:15.382Z,1012.82
2018-08-20T08:58:15.374Z,1012.79
2018-08-20T08:59:15.356Z,1012.85
2018-08-20T09:00:15.349Z,1012.83
2018-08-20T09:01:15.337Z,1012.86
2018-08-20T09:02:15.327Z,1012.82
2018-08-20T09:03:15.316Z,1012.91
2018-08-20T09:04:15.306Z,1012.89
2018-08-20T09:05:15.301Z,1012.89
2018-08-20T09:06:15.291Z,1012.93
2018-08-20T09:07:15.275Z,1013.04
2018-08-20T09:08:15.269Z,1013.10
2018-08-20T09:09:15.261Z,1013.07
2018-08-20T09:10:15.250Z,1013.04
2018-08-20T09:11:15.240Z,1013.07
2018-08-20T09:12:15.237Z,1013.05
2018-08-20T09:13:15.220Z,1013.04
2018-08-20T09:14:15.210Z,1013.04
2018-08-20T09:15:15.201Z,1013.01
2018-08-20T09:16:15.197Z,1013.00
2018-08-20T09:17:15.184Z,1013.03
2018-08-20T09:18:15.179Z,1012.98
2018-08-20T09:19:15.164Z,1012.97
2018-08-20T09:20:15.163Z,1012.96
2018-08-20T09:21:15.144Z,1012.94
2018-08-20T09:22:15.141Z,1012.95
2018-08-20T09:23:15.129Z,1012.98
2018-08-20T09:24:15.118Z,1012.91
2018-08-20T09:25:15.111Z,1012.89
2018-08-20T09:26:15.099Z,1012.91
2018-08-20T09:27:15.089Z,1012.93
2018-08-20T09:28:15.083Z,1013.23
2018-08-20T09:29:15.074Z,1013.00
2018-08-20T09:30:15.064Z,1013.02
2018-08-20T09:31:15.053Z,1012.96
2018-08-20T09:32:15.068Z,1012.96
2018-08-20T09:33:15.032Z,1012.99
2018-08-20T09:34:15.026Z,1012.95
2018-08-20T09:35:15.019Z,1013.01
2018-08-20T09:36:15.012Z,1012.99
2018-08-20T09:37:15.008Z,1013.02
2018-08-20T09:38:15.053Z,1012.99
2018-08-20T09:39:14.990Z,1013.02
2018-08-20T09:40:14.972Z,1013.01
2018-08-20T09:41:14.968Z,1013.09
2018-08-20T09:42:14.961Z,1013.00
2018-08-20T09:43:14.949Z,1013.00
2018-08-20T09:44:14.948Z,1012.97
2018-08-20T09:45:14.926Z,1012.90
2018-08-20T09:46:14.920Z,1012.95
2018-08-20T09:47:14.912Z,1012.93
2018-08-20T09:48:14.904Z,1012.93
2018-08-20T09:49:14.897Z,1012.92
2018-08-20T09:50:14.883Z,1012.99
2018-08-20T09:51:14.875Z,1012.98
2018-08-20T09:52:14.867Z,1013.05
2018-08-20T09:53:14.927Z,1013.02
2018-08-20T09:54:14.863Z,1013.04
2018-08-20T09:55:14.853Z,1012.99
2018-08-20T09:56:14.838Z,1012.97
2018-08-20T09:57:14.824Z,1012.90
2018-08-20T09:58:14.815Z,1012.88
2018-08-20T09:59:14.807Z,1012.88
2018-08-20T10:00:14.800Z,1012.86
2018-08-20T10:01:14.788Z,1012.87
2018-08-20T10:02:14.780Z,1012.87
2018-08-20T10:03:14.779Z,1012.86
2018-08-20T10:04:14.766Z,1012.87
2018-08-20T10:05:14.762Z,1012.85
2018-08-20T10:06:14.744Z,1012.85
2018-08-20T10:07:14.738Z,1012.83
2018-08-20T10:08:14.748Z,1012.82
2018-08-20T10:09:14.720Z,1012.79
2018-08-20T10:10:14.728Z,1012.84
2018-08-20T10:11:14.703Z,1012.80
2018-08-20T10:12:14.695Z,1012.82
2018-08-20T10:13:14.680Z,1012.79
2018-08-20T10:14:14.672Z,1012.80
2018-08-20T10:15:14.668Z,1012.77
2018-08-20T10:16:14.652Z,1012.82
2018-08-20T10:17:14.652Z,1012.78
2018-08-20T10:18:14.641Z,1012.80
2018-08-20T10:19:14.634Z,1012.79
2018-08-20T10:20:14.621Z,1012.82
2018-08-20T10:21:14.609Z,1012.85
2018-08-20T10:22:14.596Z,1012.85
2018-08-20T10:23:14.592Z,1012.87
2018-08-20T10:24:14.578Z,1012.87
2018-08-20T10:25:14.565Z,1012.87
2018-08-20T10:26:14.558Z,1012.84
2018-08-20T10:27:14.548Z,1012.85
2018-08-20T10:28:14.538Z,1012.82
2018-08-20T10:29:14.537Z,1012.88
2018-08-20T10:30:14.524Z,1012.84
2018-08-20T10:31:14.509Z,1012.89
2018-08-20T10:32:14.503Z,1012.85
2018-08-20T10:33:14.501Z,1012.93
2018-08-20T10:34:14.485Z,1012.97
2018-08-20T10:35:14.487Z,1012.92
2018-08-20T10:36:14.460Z,1012.95
2018-08-20T10:37:14.455Z,1012.95
2018-08-20T10:38:14.446Z,1012.94
2018-08-20T10:39:14.428Z,1012.96
2018-08-20T10:40:14.424Z,1012.95
2018-08-20T10:41:14.418Z,1012.97
2018-08-20T10:42:14.399Z,1012.96
2018-08-20T10:43:14.395Z,1013.01
2018-08-20T10:44:14.379Z,1012.96
2018-08-20T10:45:14.373Z,1012.97
2018-08-20T10:46:14.361Z,1012.97
2018-08-20T10:47:14.352Z,1012.96
2018-08-20T10:48:14.338Z,1013.00
2018-08-20T10:49:14.336Z,1012.99
2018-08-20T10:50:14.319Z,1012.99
2018-08-20T10:51:14.324Z,1012.96
2018-08-20T10:52:14.308Z,1012.98
2018-08-20T10:53:14.292Z,1013.02
2018-08-20T10:54:14.281Z,1012.97
2018-08-20T10:55:14.266Z,1012.96
2018-08-20T10:56:14.324Z,1012.96
2018-08-20T10:57:14.245Z,1012.91
2018-08-20T10:58:14.238Z,1012.93
2018-08-20T10:59:14.228Z,1013.03
2018-08-20T11:00:14.225Z,1013.00
2018-08-20T11:01:14.213Z,1013.04
2018-08-20T11:02:14.201Z,1013.04
2018-08-20T11:03:14.199Z,1013.06
2018-08-20T11:04:14.176Z,1013.06
2018-08-20T11:05:14.172Z,1013.06
2018-08-20T11:06:14.155Z,1013.09
2018-08-20T11:07:14.145Z,1013.11
2018-08-20T11:08:14.136Z,1013.12
2018-08-20T11:09:14.124Z,1013.11
2018-08-20T11:10:14.248Z,1013.06
2018-08-20T11:11:14.108Z,1013.10
2018-08-20T11:12:14.095Z,1013.05
2018-08-20T11:13:14.084Z,1013.06
2018-08-20T11:14:14.071Z,1013.10
2018-08-20T11:15:14.061Z,1013.11
2018-08-20T11:16:14.058Z,1013.10
2018-08-20T11:17:14.042Z,1013.11
2018-08-20T11:18:14.083Z,1013.12
2018-08-20T11:19:14.022Z,1013.14
2018-08-20T11:20:14.023Z,1013.14
2018-08-20T11:21:14.007Z,1013.13
2018-08-20T11:22:13.994Z,1013.13
2018-08-20T11:23:13.981Z,1013.18
2018-08-20T11:24:13.971Z,1013.15
2018-08-20T11:25:13.973Z,1013.16
2018-08-20T11:26:13.950Z,1013.19
2018-08-20T11:27:13.945Z,1013.17
2018-08-20T11:28:13.932Z,1013.17
2018-08-20T11:29:13.921Z,1013.19
2018-08-20T11:30:13.992Z,1013.17
2018-08-20T11:31:13.900Z,1013.16
2018-08-20T11:32:13.892Z,1013.19
2018-08-20T11:33:13.881Z,1013.19
2018-08-20T11:34:13.870Z,1013.20
2018-08-20T11:35:13.868Z,1013.19
2018-08-20T11:36:13.847Z,1013.19
2018-08-20T11:37:13.853Z,1013.21
2018-08-20T11:38:13.833Z,1013.24
2018-08-20T11:39:13.821Z,1013.20
2018-08-20T11:40:13.814Z,1013.20
2018-08-20T11:41:13.803Z,1013.18
2018-08-20T11:42:13.790Z,1013.21
2018-08-20T11:43:13.843Z,1013.19
2018-08-20T11:44:13.773Z,1013.22
2018-08-20T11:45:13.765Z,1013.28
2018-08-20T11:46:13.753Z,1013.25
2018-08-20T11:47:13.744Z,1013.22
2018-08-20T11:48:13.732Z,1013.27
2018-08-20T11:49:13.812Z,1013.23
2018-08-20T11:50:13.735Z,1013.23
2018-08-20T11:51:13.702Z,1013.20
2018-08-20T11:52:13.694Z,1013.19
2018-08-20T11:53:13.688Z,1013.17
2018-08-20T11:54:13.675Z,1013.19
2018-08-20T11:55:13.661Z,1013.14
2018-08-20T11:56:13.653Z,1013.11
2018-08-20T11:57:13.646Z,1013.10
2018-08-20T11:58:13.632Z,1013.08
2018-08-20T11:59:13.627Z,1013.08
2018-08-20T12:00:13.623Z,1013.05
2018-08-20T12:01:13.607Z,1013.06
2018-08-20T12:02:13.591Z,1013.09
2018-08-20T12:03:13.588Z,1013.03
2018-08-20T12:04:13.576Z,1013.03
2018-08-20T12:05:13.569Z,1013.08